sensor_id;sensor_type;location;lat;lon;timestamp;pressure;altitude;pressure_sealevel;temperature
69186;BMP280;56298;49.246;9.410;2024-03-06T00:01:03;99494.03;;;4.41
69186;BMP280;56298;49.246;9.410;2024-03-06T00:03:28;99495.66;;;4.28
69186;BMP280;56298;49.246;9.410;2024-03-06T00:05:53;99501.28;;;4.31
69186;BMP280;56298;49.246;9.410;2024-03-06T00:08:19;99498.97;;;4.38
69186;BMP280;56298;49.246;9.410;2024-03-06T00:10:44;99501.44;;;4.49
69186;BMP280;56298;49.246;9.410;2024-03-06T00:13:10;99508.56;;;4.59
69186;BMP280;56298;49.246;9.410;2024-03-06T00:15:35;99515.81;;;4.63
69186;BMP280;56298;49.246;9.410;2024-03-06T00:18:00;99508.63;;;4.68
69186;BMP280;56298;49.246;9.410;2024-03-06T00:20:26;99518.22;;;4.65
69186;BMP280;56298;49.246;9.410;2024-03-06T00:22:51;99515.63;;;4.60
69186;BMP280;56298;49.246;9.410;2024-03-06T00:25:17;99522.97;;;4.59
69186;BMP280;56298;49.246;9.410;2024-03-06T00:27:42;99524.78;;;4.64
69186;BMP280;56298;49.246;9.410;2024-03-06T00:30:07;99529.69;;;4.62
69186;BMP280;56298;49.246;9.410;2024-03-06T00:32:33;99524.38;;;4.57
69186;BMP280;56298;49.246;9.410;2024-03-06T00:34:58;99532.44;;;4.48
69186;BMP280;56298;49.246;9.410;2024-03-06T00:37:23;99537.84;;;4.48
69186;BMP280;56298;49.246;9.410;2024-03-06T00:39:49;99535.97;;;4.34
69186;BMP280;56298;49.246;9.410;2024-03-06T00:42:14;99535.56;;;4.27
69186;BMP280;56298;49.246;9.410;2024-03-06T00:44:39;99532.06;;;4.26
69186;BMP280;56298;49.246;9.410;2024-03-06T00:47:04;99538.50;;;4.17
69186;BMP280;56298;49.246;9.410;2024-03-06T00:49:30;99534.19;;;4.16
69186;BMP280;56298;49.246;9.410;2024-03-06T00:51:55;99529.94;;;4.09
69186;BMP280;56298;49.246;9.410;2024-03-06T00:54:20;99535.69;;;4.08
69186;BMP280;56298;49.246;9.410;2024-03-06T00:56:45;99521.00;;;3.95
69186;BMP280;56298;49.246;9.410;2024-03-06T00:59:11;99519.03;;;4.15
69186;BMP280;56298;49.246;9.410;2024-03-06T01:01:36;99517.69;;;4.26
69186;BMP280;56298;49.246;9.410;2024-03-06T01:04:01;99517.00;;;4.06
69186;BMP280;56298;49.246;9.410;2024-03-06T01:06:27;99516.91;;;4.11
69186;BMP280;56298;49.246;9.410;2024-03-06T01:08:52;99529.16;;;4.23
69186;BMP280;56298;49.246;9.410;2024-03-06T01:11:18;99524.03;;;4.21
69186;BMP280;56298;49.246;9.410;2024-03-06T01:13:43;99536.81;;;4.21
69186;BMP280;56298;49.246;9.410;2024-03-06T01:16:08;99526.44;;;4.23
69186;BMP280;56298;49.246;9.410;2024-03-06T01:18:33;99517.22;;;4.24
69186;BMP280;56298;49.246;9.410;2024-03-06T01:20:59;99512.25;;;4.26
69186;BMP280;56298;49.246;9.410;2024-03-06T01:23:24;99514.56;;;4.33
69186;BMP280;56298;49.246;9.410;2024-03-06T01:25:49;99514.56;;;4.19
69186;BMP280;56298;49.246;9.410;2024-03-06T01:28:15;99523.94;;;4.12
69186;BMP280;56298;49.246;9.410;2024-03-06T01:30:40;99520.81;;;4.19
69186;BMP280;56298;49.246;9.410;2024-03-06T01:33:05;99526.53;;;4.32
69186;BMP280;56298;49.246;9.410;2024-03-06T01:35:31;99526.50;;;4.46
69186;BMP280;56298;49.246;9.410;2024-03-06T01:37:56;99531.31;;;4.49
69186;BMP280;56298;49.246;9.410;2024-03-06T01:40:22;99532.31;;;4.53
69186;BMP280;56298;49.246;9.410;2024-03-06T01:42:47;99532.50;;;4.57
69186;BMP280;56298;49.246;9.410;2024-03-06T01:45:16;99531.91;;;4.60
69186;BMP280;56298;49.246;9.410;2024-03-06T01:47:41;99522.91;;;4.36
69186;BMP280;56298;49.246;9.410;2024-03-06T01:50:07;99535.06;;;4.39
69186;BMP280;56298;49.246;9.410;2024-03-06T01:52:35;99527.72;;;4.39
69186;BMP280;56298;49.246;9.410;2024-03-06T01:55:01;99529.13;;;4.37
69186;BMP280;56298;49.246;9.410;2024-03-06T01:57:27;99523.41;;;4.38
69186;BMP280;56298;49.246;9.410;2024-03-06T01:59:53;99518.09;;;4.33
69186;BMP280;56298;49.246;9.410;2024-03-06T02:02:20;99518.38;;;4.46
69186;BMP280;56298;49.246;9.410;2024-03-06T02:04:45;99515.38;;;4.33
69186;BMP280;56298;49.246;9.410;2024-03-06T02:07:10;99517.66;;;4.40
69186;BMP280;56298;49.246;9.410;2024-03-06T02:09:37;99520.34;;;4.54
69186;BMP280;56298;49.246;9.410;2024-03-06T02:12:02;99522.25;;;4.53
69186;BMP280;56298;49.246;9.410;2024-03-06T02:14:29;99532.03;;;4.55
69186;BMP280;56298;49.246;9.410;2024-03-06T02:16:54;99540.19;;;4.55
69186;BMP280;56298;49.246;9.410;2024-03-06T02:19:19;99541.78;;;4.56
69186;BMP280;56298;49.246;9.410;2024-03-06T02:21:45;99535.34;;;4.51
69186;BMP280;56298;49.246;9.410;2024-03-06T02:24:10;99529.38;;;4.49
69186;BMP280;56298;49.246;9.410;2024-03-06T02:26:38;99529.59;;;4.53
69186;BMP280;56298;49.246;9.410;2024-03-06T02:29:03;99532.81;;;4.55
69186;BMP280;56298;49.246;9.410;2024-03-06T02:31:31;99540.47;;;4.53
69186;BMP280;56298;49.246;9.410;2024-03-06T02:33:56;99536.84;;;4.58
69186;BMP280;56298;49.246;9.410;2024-03-06T02:36:23;99534.31;;;4.61
69186;BMP280;56298;49.246;9.410;2024-03-06T02:38:48;99535.31;;;4.65
69186;BMP280;56298;49.246;9.410;2024-03-06T02:41:14;99535.38;;;4.74
69186;BMP280;56298;49.246;9.410;2024-03-06T02:43:41;99535.75;;;4.82
69186;BMP280;56298;49.246;9.410;2024-03-06T02:46:06;99537.88;;;4.85
69186;BMP280;56298;49.246;9.410;2024-03-06T02:48:31;99539.97;;;4.88
69186;BMP280;56298;49.246;9.410;2024-03-06T02:50:57;99540.03;;;4.97
69186;BMP280;56298;49.246;9.410;2024-03-06T02:53:23;99529.25;;;4.83
69186;BMP280;56298;49.246;9.410;2024-03-06T02:55:48;99525.31;;;4.75
69186;BMP280;56298;49.246;9.410;2024-03-06T02:58:14;99520.44;;;4.86
69186;BMP280;56298;49.246;9.410;2024-03-06T03:00:42;99524.75;;;4.87
69186;BMP280;56298;49.246;9.410;2024-03-06T03:03:07;99518.53;;;4.86
69186;BMP280;56298;49.246;9.410;2024-03-06T03:05:32;99517.47;;;4.96
69186;BMP280;56298;49.246;9.410;2024-03-06T03:07:58;99520.63;;;4.89
69186;BMP280;56298;49.246;9.410;2024-03-06T03:10:24;99518.41;;;4.91
69186;BMP280;56298;49.246;9.410;2024-03-06T03:12:49;99527.16;;;4.88
69186;BMP280;56298;49.246;9.410;2024-03-06T03:15:15;99529.59;;;4.90
69186;BMP280;56298;49.246;9.410;2024-03-06T03:17:41;99522.03;;;4.87
69186;BMP280;56298;49.246;9.410;2024-03-06T03:20:07;99519.75;;;4.80
69186;BMP280;56298;49.246;9.410;2024-03-06T03:22:39;99523.81;;;4.69
69186;BMP280;56298;49.246;9.410;2024-03-06T03:25:12;99529.88;;;4.65
69186;BMP280;56298;49.246;9.410;2024-03-06T03:27:38;99536.69;;;4.77
69186;BMP280;56298;49.246;9.410;2024-03-06T03:30:07;99530.44;;;4.76
69186;BMP280;56298;49.246;9.410;2024-03-06T03:32:33;99536.19;;;4.75
69186;BMP280;56298;49.246;9.410;2024-03-06T03:35:00;99542.00;;;4.82
69186;BMP280;56298;49.246;9.410;2024-03-06T03:37:25;99538.41;;;4.73
69186;BMP280;56298;49.246;9.410;2024-03-06T03:39:50;99540.75;;;4.65
69186;BMP280;56298;49.246;9.410;2024-03-06T03:42:15;99539.72;;;4.75
69186;BMP280;56298;49.246;9.410;2024-03-06T03:44:41;99537.81;;;4.76
69186;BMP280;56298;49.246;9.410;2024-03-06T03:47:06;99537.09;;;4.70
69186;BMP280;56298;49.246;9.410;2024-03-06T03:49:31;99537.28;;;4.74
69186;BMP280;56298;49.246;9.410;2024-03-06T03:51:57;99535.63;;;4.87
69186;BMP280;56298;49.246;9.410;2024-03-06T03:54:23;99547.94;;;4.84
69186;BMP280;56298;49.246;9.410;2024-03-06T03:56:48;99554.03;;;4.90
69186;BMP280;56298;49.246;9.410;2024-03-06T03:59:14;99559.88;;;4.97
69186;BMP280;56298;49.246;9.410;2024-03-06T04:01:39;99551.50;;;4.93
69186;BMP280;56298;49.246;9.410;2024-03-06T04:04:05;99551.22;;;4.95
69186;BMP280;56298;49.246;9.410;2024-03-06T04:06:32;99547.94;;;4.84
69186;BMP280;56298;49.246;9.410;2024-03-06T04:08:57;99553.69;;;4.83
69186;BMP280;56298;49.246;9.410;2024-03-06T04:11:22;99553.63;;;4.97
69186;BMP280;56298;49.246;9.410;2024-03-06T04:13:47;99552.03;;;4.96
69186;BMP280;56298;49.246;9.410;2024-03-06T04:16:17;99550.59;;;4.98
69186;BMP280;56298;49.246;9.410;2024-03-06T04:18:43;99551.31;;;5.04
69186;BMP280;56298;49.246;9.410;2024-03-06T04:21:09;99550.50;;;5.03
69186;BMP280;56298;49.246;9.410;2024-03-06T04:23:35;99561.38;;;5.03
69186;BMP280;56298;49.246;9.410;2024-03-06T04:26:00;99565.53;;;5.10
69186;BMP280;56298;49.246;9.410;2024-03-06T04:28:26;99569.97;;;5.05
69186;BMP280;56298;49.246;9.410;2024-03-06T04:30:51;99565.53;;;5.10
69186;BMP280;56298;49.246;9.410;2024-03-06T04:33:16;99574.41;;;5.15
69186;BMP280;56298;49.246;9.410;2024-03-06T04:35:42;99576.81;;;5.17
69186;BMP280;56298;49.246;9.410;2024-03-06T04:38:07;99584.88;;;5.08
69186;BMP280;56298;49.246;9.410;2024-03-06T04:40:33;99583.66;;;5.14
69186;BMP280;56298;49.246;9.410;2024-03-06T04:42:59;99588.16;;;5.19
69186;BMP280;56298;49.246;9.410;2024-03-06T04:45:24;99583.84;;;5.18
69186;BMP280;56298;49.246;9.410;2024-03-06T04:47:49;99586.56;;;5.18
69186;BMP280;56298;49.246;9.410;2024-03-06T04:50:15;99590.41;;;5.17
69186;BMP280;56298;49.246;9.410;2024-03-06T04:52:41;99596.03;;;5.20
69186;BMP280;56298;49.246;9.410;2024-03-06T04:55:07;99593.47;;;5.24
69186;BMP280;56298;49.246;9.410;2024-03-06T04:57:34;99597.00;;;5.25
69186;BMP280;56298;49.246;9.410;2024-03-06T04:59:59;99600.19;;;5.27
69186;BMP280;56298;49.246;9.410;2024-03-06T05:02:25;99603.13;;;5.30
69186;BMP280;56298;49.246;9.410;2024-03-06T05:04:53;99612.50;;;5.24
69186;BMP280;56298;49.246;9.410;2024-03-06T05:07:18;99616.94;;;5.20
69186;BMP280;56298;49.246;9.410;2024-03-06T05:09:43;99615.75;;;5.12
69186;BMP280;56298;49.246;9.410;2024-03-06T05:12:09;99617.59;;;5.17
69186;BMP280;56298;49.246;9.410;2024-03-06T05:14:34;99624.91;;;5.16
69186;BMP280;56298;49.246;9.410;2024-03-06T05:16:59;99622.84;;;5.13
69186;BMP280;56298;49.246;9.410;2024-03-06T05:19:25;99627.03;;;5.05
69186;BMP280;56298;49.246;9.410;2024-03-06T05:21:57;99625.00;;;5.02
69186;BMP280;56298;49.246;9.410;2024-03-06T05:24:24;99625.41;;;4.82
69186;BMP280;56298;49.246;9.410;2024-03-06T05:26:49;99622.31;;;4.74
69186;BMP280;56298;49.246;9.410;2024-03-06T05:29:15;99628.34;;;4.85
69186;BMP280;56298;49.246;9.410;2024-03-06T05:31:41;99630.13;;;4.90
69186;BMP280;56298;49.246;9.410;2024-03-06T05:34:06;99630.53;;;4.97
69186;BMP280;56298;49.246;9.410;2024-03-06T05:36:31;99636.16;;;5.01
69186;BMP280;56298;49.246;9.410;2024-03-06T05:38:57;99629.31;;;5.03
69186;BMP280;56298;49.246;9.410;2024-03-06T05:41:22;99641.00;;;5.04
69186;BMP280;56298;49.246;9.410;2024-03-06T05:43:47;99640.78;;;5.00
69186;BMP280;56298;49.246;9.410;2024-03-06T05:46:15;99638.34;;;4.99
69186;BMP280;56298;49.246;9.410;2024-03-06T05:48:41;99637.88;;;4.97
69186;BMP280;56298;49.246;9.410;2024-03-06T05:51:06;99645.41;;;5.00
69186;BMP280;56298;49.246;9.410;2024-03-06T05:53:39;99643.91;;;4.93
69186;BMP280;56298;49.246;9.410;2024-03-06T05:56:07;99649.75;;;5.01
69186;BMP280;56298;49.246;9.410;2024-03-06T05:58:33;99650.84;;;5.00
69186;BMP280;56298;49.246;9.410;2024-03-06T06:00:59;99655.53;;;5.08
69186;BMP280;56298;49.246;9.410;2024-03-06T06:03:25;99672.44;;;5.19
69186;BMP280;56298;49.246;9.410;2024-03-06T06:05:50;99667.06;;;5.28
69186;BMP280;56298;49.246;9.410;2024-03-06T06:08:15;99672.25;;;5.15
69186;BMP280;56298;49.246;9.410;2024-03-06T06:10:41;99665.69;;;5.16
69186;BMP280;56298;49.246;9.410;2024-03-06T06:13:06;99669.72;;;5.19
69186;BMP280;56298;49.246;9.410;2024-03-06T06:15:31;99671.22;;;5.25
69186;BMP280;56298;49.246;9.410;2024-03-06T06:17:56;99673.13;;;5.25
69186;BMP280;56298;49.246;9.410;2024-03-06T06:20:22;99676.94;;;5.24
69186;BMP280;56298;49.246;9.410;2024-03-06T06:22:47;99680.78;;;5.23
69186;BMP280;56298;49.246;9.410;2024-03-06T06:25:13;99680.34;;;5.29
69186;BMP280;56298;49.246;9.410;2024-03-06T06:27:40;99686.50;;;5.35
69186;BMP280;56298;49.246;9.410;2024-03-06T06:30:06;99678.84;;;5.37
69186;BMP280;56298;49.246;9.410;2024-03-06T06:32:35;99687.34;;;5.44
69186;BMP280;56298;49.246;9.410;2024-03-06T06:35:00;99692.06;;;5.53
69186;BMP280;56298;49.246;9.410;2024-03-06T06:37:26;99689.66;;;5.51
69186;BMP280;56298;49.246;9.410;2024-03-06T06:39:52;99699.41;;;5.52
69186;BMP280;56298;49.246;9.410;2024-03-06T06:42:18;99699.50;;;5.61
69186;BMP280;56298;49.246;9.410;2024-03-06T06:44:43;99704.72;;;5.57
69186;BMP280;56298;49.246;9.410;2024-03-06T06:47:08;99709.75;;;5.64
69186;BMP280;56298;49.246;9.410;2024-03-06T06:49:33;99703.44;;;5.55
69186;BMP280;56298;49.246;9.410;2024-03-06T06:51:59;99701.53;;;5.55
69186;BMP280;56298;49.246;9.410;2024-03-06T06:54:24;99706.16;;;5.55
69186;BMP280;56298;49.246;9.410;2024-03-06T06:56:49;99717.59;;;5.66
69186;BMP280;56298;49.246;9.410;2024-03-06T06:59:15;99720.38;;;5.74
69186;BMP280;56298;49.246;9.410;2024-03-06T07:01:40;99721.34;;;5.79
69186;BMP280;56298;49.246;9.410;2024-03-06T07:04:08;99723.78;;;5.80
69186;BMP280;56298;49.246;9.410;2024-03-06T07:06:34;99725.84;;;5.74
69186;BMP280;56298;49.246;9.410;2024-03-06T07:08:59;99727.63;;;5.79
69186;BMP280;56298;49.246;9.410;2024-03-06T07:11:24;99732.06;;;5.75
69186;BMP280;56298;49.246;9.410;2024-03-06T07:13:50;99728.03;;;5.72
69186;BMP280;56298;49.246;9.410;2024-03-06T07:16:16;99728.63;;;5.83
69186;BMP280;56298;49.246;9.410;2024-03-06T07:18:41;99732.66;;;5.86
69186;BMP280;56298;49.246;9.410;2024-03-06T07:21:07;99740.34;;;5.93
69186;BMP280;56298;49.246;9.410;2024-03-06T07:23:32;99741.53;;;6.00
69186;BMP280;56298;49.246;9.410;2024-03-06T07:25:58;99735.81;;;5.88
69186;BMP280;56298;49.246;9.410;2024-03-06T07:28:24;99740.91;;;6.04
69186;BMP280;56298;49.246;9.410;2024-03-06T07:30:51;99738.34;;;5.98
69186;BMP280;56298;49.246;9.410;2024-03-06T07:33:16;99748.00;;;6.13
69186;BMP280;56298;49.246;9.410;2024-03-06T07:35:41;99743.38;;;6.14
69186;BMP280;56298;49.246;9.410;2024-03-06T07:38:06;99745.13;;;6.19
69186;BMP280;56298;49.246;9.410;2024-03-06T07:40:32;99735.88;;;6.20
69186;BMP280;56298;49.246;9.410;2024-03-06T07:42:57;99748.53;;;6.15
69186;BMP280;56298;49.246;9.410;2024-03-06T07:45:23;99757.81;;;6.14
69186;BMP280;56298;49.246;9.410;2024-03-06T07:47:48;99751.66;;;6.09
69186;BMP280;56298;49.246;9.410;2024-03-06T07:50:13;99749.25;;;6.07
69186;BMP280;56298;49.246;9.410;2024-03-06T07:52:43;99755.16;;;6.00
69186;BMP280;56298;49.246;9.410;2024-03-06T07:55:10;99757.56;;;6.02
69186;BMP280;56298;49.246;9.410;2024-03-06T07:57:35;99754.56;;;6.12
69186;BMP280;56298;49.246;9.410;2024-03-06T08:00:01;99750.94;;;6.17
69186;BMP280;56298;49.246;9.410;2024-03-06T08:02:29;99756.22;;;6.22
69186;BMP280;56298;49.246;9.410;2024-03-06T08:04:54;99757.25;;;6.35
69186;BMP280;56298;49.246;9.410;2024-03-06T08:07:19;99762.41;;;6.46
69186;BMP280;56298;49.246;9.410;2024-03-06T08:09:45;99764.84;;;6.47
69186;BMP280;56298;49.246;9.410;2024-03-06T08:12:10;99764.53;;;6.49
69186;BMP280;56298;49.246;9.410;2024-03-06T08:14:35;99766.81;;;6.55
69186;BMP280;56298;49.246;9.410;2024-03-06T08:17:01;99763.13;;;6.60
69186;BMP280;56298;49.246;9.410;2024-03-06T08:19:27;99764.13;;;6.64
69186;BMP280;56298;49.246;9.410;2024-03-06T08:21:53;99761.69;;;6.63
69186;BMP280;56298;49.246;9.410;2024-03-06T08:24:18;99767.16;;;6.63
69186;BMP280;56298;49.246;9.410;2024-03-06T08:26:43;99762.72;;;6.76
69186;BMP280;56298;49.246;9.410;2024-03-06T08:29:08;99772.38;;;6.82
69186;BMP280;56298;49.246;9.410;2024-03-06T08:31:34;99770.28;;;6.88
69186;BMP280;56298;49.246;9.410;2024-03-06T08:33:59;99776.00;;;6.77
69186;BMP280;56298;49.246;9.410;2024-03-06T08:36:24;99775.75;;;6.88
69186;BMP280;56298;49.246;9.410;2024-03-06T08:38:50;99778.94;;;6.81
69186;BMP280;56298;49.246;9.410;2024-03-06T08:41:17;99779.13;;;6.93
69186;BMP280;56298;49.246;9.410;2024-03-06T08:43:43;99775.59;;;7.02
69186;BMP280;56298;49.246;9.410;2024-03-06T08:46:09;99778.03;;;6.94
69186;BMP280;56298;49.246;9.410;2024-03-06T08:48:34;99779.31;;;7.06
69186;BMP280;56298;49.246;9.410;2024-03-06T08:51:00;99788.78;;;7.17
69186;BMP280;56298;49.246;9.410;2024-03-06T08:53:25;99786.75;;;7.23
69186;BMP280;56298;49.246;9.410;2024-03-06T08:55:51;99782.09;;;7.23
69186;BMP280;56298;49.246;9.410;2024-03-06T08:58:17;99790.44;;;7.27
69186;BMP280;56298;49.246;9.410;2024-03-06T09:00:42;99794.63;;;7.24
69186;BMP280;56298;49.246;9.410;2024-03-06T09:03:07;99798.28;;;7.29
69186;BMP280;56298;49.246;9.410;2024-03-06T09:05:33;99784.00;;;7.23
69186;BMP280;56298;49.246;9.410;2024-03-06T09:07:59;99790.91;;;7.20
69186;BMP280;56298;49.246;9.410;2024-03-06T09:10:24;99795.69;;;7.15
69186;BMP280;56298;49.246;9.410;2024-03-06T09:12:51;99797.41;;;7.02
69186;BMP280;56298;49.246;9.410;2024-03-06T09:15:16;99796.03;;;7.13
69186;BMP280;56298;49.246;9.410;2024-03-06T09:17:46;99794.88;;;7.05
69186;BMP280;56298;49.246;9.410;2024-03-06T09:20:12;99796.00;;;7.04
69186;BMP280;56298;49.246;9.410;2024-03-06T09:22:38;99795.84;;;7.09
69186;BMP280;56298;49.246;9.410;2024-03-06T09:25:05;99797.28;;;7.07
69186;BMP280;56298;49.246;9.410;2024-03-06T09:27:31;99802.44;;;7.17
69186;BMP280;56298;49.246;9.410;2024-03-06T09:29:56;99801.97;;;7.24
69186;BMP280;56298;49.246;9.410;2024-03-06T09:32:22;99808.44;;;7.37
69186;BMP280;56298;49.246;9.410;2024-03-06T09:34:47;99809.88;;;7.52
69186;BMP280;56298;49.246;9.410;2024-03-06T09:37:13;99809.72;;;7.48
69186;BMP280;56298;49.246;9.410;2024-03-06T09:42:51;99812.28;;;7.53
69186;BMP280;56298;49.246;9.410;2024-03-06T09:45:17;99810.84;;;7.65
69186;BMP280;56298;49.246;9.410;2024-03-06T09:47:45;99818.22;;;7.64
69186;BMP280;56298;49.246;9.410;2024-03-06T09:50:16;99818.41;;;7.59
69186;BMP280;56298;49.246;9.410;2024-03-06T09:52:43;99818.22;;;7.64
69186;BMP280;56298;49.246;9.410;2024-03-06T09:55:11;99812.63;;;7.70
69186;BMP280;56298;49.246;9.410;2024-03-06T09:57:38;99827.06;;;7.61
69186;BMP280;56298;49.246;9.410;2024-03-06T10:00:07;99817.59;;;7.76
69186;BMP280;56298;49.246;9.410;2024-03-06T10:02:57;99820.78;;;7.78
69186;BMP280;56298;49.246;9.410;2024-03-06T10:05:23;99823.72;;;7.82
69186;BMP280;56298;49.246;9.410;2024-03-06T10:07:50;99820.97;;;7.91
69186;BMP280;56298;49.246;9.410;2024-03-06T10:10:16;99825.16;;;8.06
69186;BMP280;56298;49.246;9.410;2024-03-06T10:12:42;99827.69;;;8.11
69186;BMP280;56298;49.246;9.410;2024-03-06T10:15:08;99826.59;;;8.03
69186;BMP280;56298;49.246;9.410;2024-03-06T10:17:37;99825.94;;;7.98
69186;BMP280;56298;49.246;9.410;2024-03-06T10:20:23;99826.56;;;8.12
69186;BMP280;56298;49.246;9.410;2024-03-06T10:22:53;99828.66;;;8.15
69186;BMP280;56298;49.246;9.410;2024-03-06T10:25:20;99830.06;;;8.21
69186;BMP280;56298;49.246;9.410;2024-03-06T10:27:46;99829.72;;;8.32
69186;BMP280;56298;49.246;9.410;2024-03-06T10:30:12;99834.25;;;8.37
69186;BMP280;56298;49.246;9.410;2024-03-06T10:32:41;99830.56;;;8.24
69186;BMP280;56298;49.246;9.410;2024-03-06T10:35:17;99826.53;;;8.21
69186;BMP280;56298;49.246;9.410;2024-03-06T10:37:44;99830.72;;;8.27
69186;BMP280;56298;49.246;9.410;2024-03-06T10:40:14;99825.38;;;8.40
69186;BMP280;56298;49.246;9.410;2024-03-06T10:42:40;99829.41;;;8.33
69186;BMP280;56298;49.246;9.410;2024-03-06T10:45:46;99828.94;;;8.31
69186;BMP280;56298;49.246;9.410;2024-03-06T10:48:13;99826.03;;;8.37
69186;BMP280;56298;49.246;9.410;2024-03-06T10:50:40;99834.25;;;8.37
69186;BMP280;56298;49.246;9.410;2024-03-06T10:53:10;99831.16;;;8.47
69186;BMP280;56298;49.246;9.410;2024-03-06T10:55:36;99829.06;;;8.44
69186;BMP280;56298;49.246;9.410;2024-03-06T10:58:05;99840.66;;;8.41
69186;BMP280;56298;49.246;9.410;2024-03-06T11:03:07;99838.41;;;8.34
69186;BMP280;56298;49.246;9.410;2024-03-06T11:05:41;99835.66;;;8.43
69186;BMP280;56298;49.246;9.410;2024-03-06T11:08:14;99832.44;;;8.49
69186;BMP280;56298;49.246;9.410;2024-03-06T11:10:42;99831.91;;;8.56
69186;BMP280;56298;49.246;9.410;2024-03-06T11:13:33;99834.34;;;8.49
69186;BMP280;56298;49.246;9.410;2024-03-06T11:16:01;99828.72;;;8.45
69186;BMP280;56298;49.246;9.410;2024-03-06T11:26:36;99835.53;;;8.21
69186;BMP280;56298;49.246;9.410;2024-03-06T11:29:02;99834.72;;;8.21
69186;BMP280;56298;49.246;9.410;2024-03-06T11:31:28;99833.63;;;8.22
69186;BMP280;56298;49.246;9.410;2024-03-06T11:33:54;99835.38;;;8.27
69186;BMP280;56298;49.246;9.410;2024-03-06T11:36:27;99825.84;;;8.42
69186;BMP280;56298;49.246;9.410;2024-03-06T11:39:06;99822.66;;;8.40
69186;BMP280;56298;49.246;9.410;2024-03-06T11:41:52;99832.63;;;8.35
69186;BMP280;56298;49.246;9.410;2024-03-06T11:44:19;99829.09;;;8.35
69186;BMP280;56298;49.246;9.410;2024-03-06T11:46:59;99831.00;;;8.43
69186;BMP280;56298;49.246;9.410;2024-03-06T11:49:27;99830.34;;;8.46
69186;BMP280;56298;49.246;9.410;2024-03-06T11:52:02;99821.97;;;8.43
69186;BMP280;56298;49.246;9.410;2024-03-06T11:54:29;99824.59;;;8.39
69186;BMP280;56298;49.246;9.410;2024-03-06T11:56:56;99829.72;;;8.41
69186;BMP280;56298;49.246;9.410;2024-03-06T11:59:26;99831.31;;;8.42
69186;BMP280;56298;49.246;9.410;2024-03-06T12:01:53;99834.19;;;8.45
69186;BMP280;56298;49.246;9.410;2024-03-06T12:04:20;99833.56;;;8.48
69186;BMP280;56298;49.246;9.410;2024-03-06T12:06:46;99833.25;;;8.50
69186;BMP280;56298;49.246;9.410;2024-03-06T12:09:13;99834.03;;;8.51
69186;BMP280;56298;49.246;9.410;2024-03-06T12:11:38;99827.28;;;8.57
69186;BMP280;56298;49.246;9.410;2024-03-06T12:14:03;99825.47;;;8.61
69186;BMP280;56298;49.246;9.410;2024-03-06T12:16:29;99829.44;;;8.72
69186;BMP280;56298;49.246;9.410;2024-03-06T12:18:58;99831.56;;;8.67
69186;BMP280;56298;49.246;9.410;2024-03-06T12:21:33;99830.91;;;8.70
69186;BMP280;56298;49.246;9.410;2024-03-06T12:27:05;99830.88;;;8.79
69186;BMP280;56298;49.246;9.410;2024-03-06T12:29:32;99835.41;;;8.66
69186;BMP280;56298;49.246;9.410;2024-03-06T12:31:59;99837.47;;;8.77
69186;BMP280;56298;49.246;9.410;2024-03-06T12:34:25;99836.13;;;8.84
69186;BMP280;56298;49.246;9.410;2024-03-06T12:36:50;99845.78;;;8.90
69186;BMP280;56298;49.246;9.410;2024-03-06T12:39:16;99834.69;;;8.86
69186;BMP280;56298;49.246;9.410;2024-03-06T12:41:43;99838.06;;;8.92
69186;BMP280;56298;49.246;9.410;2024-03-06T12:44:08;99827.22;;;8.96
69186;BMP280;56298;49.246;9.410;2024-03-06T12:46:35;99834.28;;;9.06
69186;BMP280;56298;49.246;9.410;2024-03-06T12:49:01;99832.53;;;9.01
69186;BMP280;56298;49.246;9.410;2024-03-06T12:51:27;99840.63;;;9.18
69186;BMP280;56298;49.246;9.410;2024-03-06T12:53:52;99837.38;;;9.25
69186;BMP280;56298;49.246;9.410;2024-03-06T12:56:42;99834.06;;;9.41
69186;BMP280;56298;49.246;9.410;2024-03-06T12:59:08;99834.59;;;9.55
69186;BMP280;56298;49.246;9.410;2024-03-06T13:01:34;99839.81;;;9.48
69186;BMP280;56298;49.246;9.410;2024-03-06T13:04:00;99837.72;;;9.45
69186;BMP280;56298;49.246;9.410;2024-03-06T13:06:26;99834.50;;;9.43
69186;BMP280;56298;49.246;9.410;2024-03-06T13:08:53;99826.72;;;9.54
69186;BMP280;56298;49.246;9.410;2024-03-06T13:11:18;99829.59;;;9.57
69186;BMP280;56298;49.246;9.410;2024-03-06T13:13:44;99826.66;;;9.41
69186;BMP280;56298;49.246;9.410;2024-03-06T13:16:09;99824.56;;;9.38
69186;BMP280;56298;49.246;9.410;2024-03-06T13:18:36;99821.69;;;9.35
69186;BMP280;56298;49.246;9.410;2024-03-06T13:21:01;99825.28;;;9.26
69186;BMP280;56298;49.246;9.410;2024-03-06T13:23:27;99822.53;;;9.26
69186;BMP280;56298;49.246;9.410;2024-03-06T13:25:52;99832.38;;;9.27
69186;BMP280;56298;49.246;9.410;2024-03-06T13:28:18;99829.03;;;9.22
69186;BMP280;56298;49.246;9.410;2024-03-06T13:30:46;99820.47;;;9.23
69186;BMP280;56298;49.246;9.410;2024-03-06T13:33:11;99829.47;;;9.24
69186;BMP280;56298;49.246;9.410;2024-03-06T13:35:39;99826.56;;;9.29
69186;BMP280;56298;49.246;9.410;2024-03-06T13:38:05;99824.56;;;9.38
69186;BMP280;56298;49.246;9.410;2024-03-06T13:40:58;99826.13;;;9.48
69186;BMP280;56298;49.246;9.410;2024-03-06T13:43:23;99825.91;;;9.53
69186;BMP280;56298;49.246;9.410;2024-03-06T13:45:49;99821.47;;;9.61
69186;BMP280;56298;49.246;9.410;2024-03-06T13:48:15;99826.53;;;9.71
69186;BMP280;56298;49.246;9.410;2024-03-06T13:50:44;99827.56;;;9.88
69186;BMP280;56298;49.246;9.410;2024-03-06T13:53:10;99817.31;;;9.97
69186;BMP280;56298;49.246;9.410;2024-03-06T13:55:35;99824.94;;;9.92
69186;BMP280;56298;49.246;9.410;2024-03-06T13:58:01;99828.75;;;9.78
69186;BMP280;56298;49.246;9.410;2024-03-06T14:00:27;99821.28;;;9.87
69186;BMP280;56298;49.246;9.410;2024-03-06T14:02:52;99814.28;;;9.90
69186;BMP280;56298;49.246;9.410;2024-03-06T14:05:18;99827.97;;;9.78
69186;BMP280;56298;49.246;9.410;2024-03-06T14:07:47;99824.28;;;9.73
69186;BMP280;56298;49.246;9.410;2024-03-06T14:10:15;99826.94;;;9.70
69186;BMP280;56298;49.246;9.410;2024-03-06T14:12:42;99825.38;;;9.60
69186;BMP280;56298;49.246;9.410;2024-03-06T14:15:09;99826.53;;;9.71
69186;BMP280;56298;49.246;9.410;2024-03-06T14:17:38;99832.97;;;9.76
69186;BMP280;56298;49.246;9.410;2024-03-06T14:20:05;99828.34;;;9.88
69186;BMP280;56298;49.246;9.410;2024-03-06T14:22:30;99823.94;;;9.96
69186;BMP280;56298;49.246;9.410;2024-03-06T14:24:55;99818.88;;;9.98
69186;BMP280;56298;49.246;9.410;2024-03-06T14:27:21;99819.84;;;10.02
69186;BMP280;56298;49.246;9.410;2024-03-06T14:29:47;99823.94;;;10.09
69186;BMP280;56298;49.246;9.410;2024-03-06T14:32:12;99819.06;;;10.14
69186;BMP280;56298;49.246;9.410;2024-03-06T14:34:39;99823.94;;;9.96